sensor_id;sensor_type;location;lat;lon;timestamp;P1;durP1;ratioP1;P2;durP2;ratioP2
20454;SDS011;10386;54.314;10.022;2024-03-02T00:00:28;49.03;;;20.10;;
20454;SDS011;10386;54.314;10.022;2024-03-02T00:02:55;53.93;;;21.07;;
20454;SDS011;10386;54.314;10.022;2024-03-02T00:05:22;48.70;;;21.00;;
20454;SDS011;10386;54.314;10.022;2024-03-02T00:07:53;51.77;;;21.07;;
20454;SDS011;10386;54.314;10.022;2024-03-02T00:10:28;57.13;;;22.37;;
20454;SDS011;10386;54.314;10.022;2024-03-02T00:13:06;56.83;;;21.27;;
20454;SDS011;10386;54.314;10.022;2024-03-02T00:18:15;54.83;;;21.97;;
20454;SDS011;10386;54.314;10.022;2024-03-02T00:20:48;52.47;;;22.57;;
20454;SDS011;10386;54.314;10.022;2024-03-02T00:23:15;50.57;;;20.93;;
20454;SDS011;10386;54.314;10.022;2024-03-02T00:25:44;51.27;;;22.03;;
20454;SDS011;10386;54.314;10.022;2024-03-02T00:31:01;51.23;;;20.20;;
20454;SDS011;10386;54.314;10.022;2024-03-02T00:33:35;47.17;;;21.07;;
20454;SDS011;10386;54.314;10.022;2024-03-02T00:36:03;51.93;;;20.97;;
20454;SDS011;10386;54.314;10.022;2024-03-02T00:38:31;50.13;;;20.97;;
20454;SDS011;10386;54.314;10.022;2024-03-02T00:41:00;49.43;;;20.57;;
20454;SDS011;10386;54.314;10.022;2024-03-02T00:46:23;46.30;;;21.00;;
20454;SDS011;10386;54.314;10.022;2024-03-02T00:48:55;48.83;;;20.87;;
20454;SDS011;10386;54.314;10.022;2024-03-02T00:51:24;47.20;;;20.33;;
20454;SDS011;10386;54.314;10.022;2024-03-02T00:53:52;53.07;;;21.60;;
20454;SDS011;10386;54.314;10.022;2024-03-02T00:56:22;52.60;;;21.80;;
20454;SDS011;10386;54.314;10.022;2024-03-02T00:58:50;47.60;;;20.73;;
20454;SDS011;10386;54.314;10.022;2024-03-02T01:01:18;50.03;;;21.30;;
20454;SDS011;10386;54.314;10.022;2024-03-02T01:03:46;55.47;;;22.33;;
20454;SDS011;10386;54.314;10.022;2024-03-02T01:06:14;55.63;;;22.00;;
20454;SDS011;10386;54.314;10.022;2024-03-02T01:08:41;50.47;;;21.40;;
20454;SDS011;10386;54.314;10.022;2024-03-02T01:11:08;49.73;;;22.93;;
20454;SDS011;10386;54.314;10.022;2024-03-02T01:13:35;45.60;;;20.13;;
20454;SDS011;10386;54.314;10.022;2024-03-02T01:16:02;52.50;;;21.60;;
20454;SDS011;10386;54.314;10.022;2024-03-02T01:18:30;49.23;;;20.73;;
20454;SDS011;10386;54.314;10.022;2024-03-02T01:20:57;58.60;;;22.73;;
20454;SDS011;10386;54.314;10.022;2024-03-02T01:23:24;53.43;;;22.10;;
20454;SDS011;10386;54.314;10.022;2024-03-02T01:25:52;55.97;;;22.10;;
20454;SDS011;10386;54.314;10.022;2024-03-02T01:28:19;51.40;;;22.20;;
20454;SDS011;10386;54.314;10.022;2024-03-02T01:30:47;56.53;;;22.23;;
20454;SDS011;10386;54.314;10.022;2024-03-02T01:33:15;53.57;;;22.37;;
20454;SDS011;10386;54.314;10.022;2024-03-02T01:35:43;56.13;;;22.43;;
20454;SDS011;10386;54.314;10.022;2024-03-02T01:38:10;52.00;;;22.20;;
20454;SDS011;10386;54.314;10.022;2024-03-02T01:40:37;54.73;;;22.30;;
20454;SDS011;10386;54.314;10.022;2024-03-02T01:43:07;56.27;;;21.83;;
20454;SDS011;10386;54.314;10.022;2024-03-02T01:45:35;51.33;;;21.10;;
20454;SDS011;10386;54.314;10.022;2024-03-02T01:48:03;54.63;;;23.23;;
20454;SDS011;10386;54.314;10.022;2024-03-02T01:50:34;58.40;;;23.10;;
20454;SDS011;10386;54.314;10.022;2024-03-02T01:53:01;55.00;;;22.40;;
20454;SDS011;10386;54.314;10.022;2024-03-02T01:55:31;54.03;;;22.70;;
20454;SDS011;10386;54.314;10.022;2024-03-02T01:58:00;57.00;;;23.70;;
20454;SDS011;10386;54.314;10.022;2024-03-02T02:00:28;61.30;;;23.33;;
20454;SDS011;10386;54.314;10.022;2024-03-02T02:02:55;53.17;;;22.33;;
20454;SDS011;10386;54.314;10.022;2024-03-02T02:05:22;60.13;;;24.30;;
20454;SDS011;10386;54.314;10.022;2024-03-02T02:07:49;62.90;;;23.60;;
20454;SDS011;10386;54.314;10.022;2024-03-02T02:10:16;65.20;;;23.93;;
20454;SDS011;10386;54.314;10.022;2024-03-02T02:12:43;57.30;;;23.73;;
20454;SDS011;10386;54.314;10.022;2024-03-02T02:15:27;59.03;;;24.20;;
20454;SDS011;10386;54.314;10.022;2024-03-02T02:17:56;56.13;;;23.43;;
20454;SDS011;10386;54.314;10.022;2024-03-02T02:20:24;58.80;;;23.83;;
20454;SDS011;10386;54.314;10.022;2024-03-02T02:23:01;59.50;;;23.23;;
20454;SDS011;10386;54.314;10.022;2024-03-02T02:25:36;58.47;;;22.87;;
20454;SDS011;10386;54.314;10.022;2024-03-02T02:28:03;52.93;;;22.63;;
20454;SDS011;10386;54.314;10.022;2024-03-02T02:30:31;56.73;;;23.93;;
20454;SDS011;10386;54.314;10.022;2024-03-02T02:32:59;58.77;;;23.80;;
20454;SDS011;10386;54.314;10.022;2024-03-02T02:35:26;60.43;;;24.10;;
20454;SDS011;10386;54.314;10.022;2024-03-02T02:37:54;59.77;;;23.47;;
20454;SDS011;10386;54.314;10.022;2024-03-02T02:40:22;57.47;;;23.67;;
20454;SDS011;10386;54.314;10.022;2024-03-02T02:42:49;54.97;;;23.87;;
20454;SDS011;10386;54.314;10.022;2024-03-02T02:45:16;56.30;;;23.50;;
20454;SDS011;10386;54.314;10.022;2024-03-02T02:47:44;64.80;;;25.63;;
20454;SDS011;10386;54.314;10.022;2024-03-02T02:50:11;59.23;;;23.73;;
20454;SDS011;10386;54.314;10.022;2024-03-02T02:52:39;64.33;;;24.80;;
20454;SDS011;10386;54.314;10.022;2024-03-02T02:55:08;61.73;;;24.13;;
20454;SDS011;10386;54.314;10.022;2024-03-02T02:57:37;67.03;;;25.83;;
20454;SDS011;10386;54.314;10.022;2024-03-02T03:00:07;62.60;;;24.43;;
20454;SDS011;10386;54.314;10.022;2024-03-02T03:02:44;60.77;;;25.77;;
20454;SDS011;10386;54.314;10.022;2024-03-02T03:05:14;63.37;;;24.47;;
20454;SDS011;10386;54.314;10.022;2024-03-02T03:07:42;65.87;;;25.03;;
20454;SDS011;10386;54.314;10.022;2024-03-02T03:10:11;63.17;;;25.07;;
20454;SDS011;10386;54.314;10.022;2024-03-02T03:12:38;66.07;;;24.83;;
20454;SDS011;10386;54.314;10.022;2024-03-02T03:15:07;75.37;;;25.50;;
20454;SDS011;10386;54.314;10.022;2024-03-02T03:17:36;61.83;;;24.40;;
20454;SDS011;10386;54.314;10.022;2024-03-02T03:20:04;65.63;;;26.27;;
20454;SDS011;10386;54.314;10.022;2024-03-02T03:22:33;63.87;;;25.23;;
20454;SDS011;10386;54.314;10.022;2024-03-02T03:25:02;63.30;;;25.60;;
20454;SDS011;10386;54.314;10.022;2024-03-02T03:27:30;68.00;;;26.60;;
20454;SDS011;10386;54.314;10.022;2024-03-02T03:30:06;63.77;;;25.60;;
20454;SDS011;10386;54.314;10.022;2024-03-02T03:32:36;69.93;;;26.07;;
20454;SDS011;10386;54.314;10.022;2024-03-02T03:35:04;59.97;;;23.90;;
20454;SDS011;10386;54.314;10.022;2024-03-02T03:37:33;72.73;;;26.40;;
20454;SDS011;10386;54.314;10.022;2024-03-02T03:40:04;63.20;;;24.47;;
20454;SDS011;10386;54.314;10.022;2024-03-02T03:42:37;60.33;;;25.33;;
20454;SDS011;10386;54.314;10.022;2024-03-02T03:45:06;69.90;;;26.43;;
20454;SDS011;10386;54.314;10.022;2024-03-02T03:47:33;65.90;;;26.63;;
20454;SDS011;10386;54.314;10.022;2024-03-02T03:50:01;62.50;;;25.33;;
20454;SDS011;10386;54.314;10.022;2024-03-02T03:52:32;69.53;;;24.93;;
20454;SDS011;10386;54.314;10.022;2024-03-02T03:55:00;64.97;;;25.40;;
20454;SDS011;10386;54.314;10.022;2024-03-02T03:57:27;69.20;;;25.97;;
20454;SDS011;10386;54.314;10.022;2024-03-02T03:59:54;66.00;;;25.97;;
20454;SDS011;10386;54.314;10.022;2024-03-02T04:02:21;59.10;;;25.20;;
20454;SDS011;10386;54.314;10.022;2024-03-02T04:04:48;64.50;;;26.57;;
20454;SDS011;10386;54.314;10.022;2024-03-02T04:07:15;65.30;;;25.37;;
20454;SDS011;10386;54.314;10.022;2024-03-02T04:09:42;65.17;;;24.53;;
20454;SDS011;10386;54.314;10.022;2024-03-02T04:12:08;67.63;;;25.77;;
20454;SDS011;10386;54.314;10.022;2024-03-02T04:14:35;66.17;;;26.33;;
20454;SDS011;10386;54.314;10.022;2024-03-02T04:17:04;64.03;;;25.67;;
20454;SDS011;10386;54.314;10.022;2024-03-02T04:19:32;65.87;;;26.77;;
20454;SDS011;10386;54.314;10.022;2024-03-02T04:22:00;74.77;;;26.27;;
20454;SDS011;10386;54.314;10.022;2024-03-02T04:24:40;65.97;;;26.37;;
20454;SDS011;10386;54.314;10.022;2024-03-02T04:27:08;66.80;;;24.40;;
20454;SDS011;10386;54.314;10.022;2024-03-02T04:29:35;61.23;;;24.93;;
20454;SDS011;10386;54.314;10.022;2024-03-02T04:32:02;62.40;;;25.27;;
20454;SDS011;10386;54.314;10.022;2024-03-02T04:34:29;59.10;;;24.80;;
20454;SDS011;10386;54.314;10.022;2024-03-02T04:36:57;64.17;;;25.90;;
20454;SDS011;10386;54.314;10.022;2024-03-02T04:39:24;69.43;;;26.20;;
20454;SDS011;10386;54.314;10.022;2024-03-02T04:41:51;65.33;;;25.57;;
20454;SDS011;10386;54.314;10.022;2024-03-02T04:44:20;63.13;;;25.23;;
20454;SDS011;10386;54.314;10.022;2024-03-02T04:46:48;64.30;;;25.37;;
20454;SDS011;10386;54.314;10.022;2024-03-02T04:49:15;70.40;;;26.83;;
20454;SDS011;10386;54.314;10.022;2024-03-02T04:51:42;62.17;;;25.93;;
20454;SDS011;10386;54.314;10.022;2024-03-02T04:54:09;68.40;;;26.00;;
20454;SDS011;10386;54.314;10.022;2024-03-02T04:56:36;67.50;;;26.23;;
20454;SDS011;10386;54.314;10.022;2024-03-02T04:59:17;58.90;;;25.43;;
20454;SDS011;10386;54.314;10.022;2024-03-02T05:01:45;66.90;;;26.27;;
20454;SDS011;10386;54.314;10.022;2024-03-02T05:04:14;65.93;;;26.40;;
20454;SDS011;10386;54.314;10.022;2024-03-02T05:06:41;74.17;;;26.43;;
20454;SDS011;10386;54.314;10.022;2024-03-02T05:09:08;69.50;;;26.37;;
20454;SDS011;10386;54.314;10.022;2024-03-02T05:11:35;63.57;;;25.77;;
20454;SDS011;10386;54.314;10.022;2024-03-02T05:14:05;68.23;;;25.73;;
20454;SDS011;10386;54.314;10.022;2024-03-02T05:16:33;62.97;;;25.60;;
20454;SDS011;10386;54.314;10.022;2024-03-02T05:19:01;68.40;;;26.63;;
20454;SDS011;10386;54.314;10.022;2024-03-02T05:21:28;67.60;;;24.93;;
20454;SDS011;10386;54.314;10.022;2024-03-02T05:23:55;65.27;;;26.67;;
20454;SDS011;10386;54.314;10.022;2024-03-02T05:26:22;64.77;;;26.67;;
20454;SDS011;10386;54.314;10.022;2024-03-02T05:28:48;73.33;;;26.80;;
20454;SDS011;10386;54.314;10.022;2024-03-02T05:31:15;67.70;;;25.80;;
20454;SDS011;10386;54.314;10.022;2024-03-02T05:33:43;69.57;;;25.63;;
20454;SDS011;10386;54.314;10.022;2024-03-02T05:36:10;71.03;;;26.57;;
20454;SDS011;10386;54.314;10.022;2024-03-02T05:38:37;67.23;;;27.10;;
20454;SDS011;10386;54.314;10.022;2024-03-02T05:41:04;67.57;;;28.07;;
20454;SDS011;10386;54.314;10.022;2024-03-02T05:43:31;68.83;;;25.90;;
20454;SDS011;10386;54.314;10.022;2024-03-02T05:45:58;66.30;;;26.83;;
20454;SDS011;10386;54.314;10.022;2024-03-02T05:48:25;59.47;;;25.37;;
20454;SDS011;10386;54.314;10.022;2024-03-02T05:50:52;63.57;;;26.30;;
20454;SDS011;10386;54.314;10.022;2024-03-02T05:53:19;69.20;;;26.37;;
20454;SDS011;10386;54.314;10.022;2024-03-02T05:55:46;64.83;;;26.27;;
20454;SDS011;10386;54.314;10.022;2024-03-02T05:58:13;63.47;;;25.20;;
20454;SDS011;10386;54.314;10.022;2024-03-02T06:00:58;67.47;;;26.97;;
20454;SDS011;10386;54.314;10.022;2024-03-02T06:03:26;70.03;;;26.30;;
20454;SDS011;10386;54.314;10.022;2024-03-02T06:05:54;61.90;;;25.33;;
20454;SDS011;10386;54.314;10.022;2024-03-02T06:08:22;64.80;;;26.57;;
20454;SDS011;10386;54.314;10.022;2024-03-02T06:10:48;63.80;;;25.10;;
20454;SDS011;10386;54.314;10.022;2024-03-02T06:13:15;68.50;;;26.93;;
20454;SDS011;10386;54.314;10.022;2024-03-02T06:15:43;71.70;;;27.17;;
20454;SDS011;10386;54.314;10.022;2024-03-02T06:18:10;70.50;;;26.00;;
20454;SDS011;10386;54.314;10.022;2024-03-02T06:20:37;66.00;;;26.73;;
20454;SDS011;10386;54.314;10.022;2024-03-02T06:23:04;66.87;;;26.17;;
20454;SDS011;10386;54.314;10.022;2024-03-02T06:25:31;65.13;;;27.43;;
20454;SDS011;10386;54.314;10.022;2024-03-02T06:27:58;72.73;;;26.30;;
20454;SDS011;10386;54.314;10.022;2024-03-02T06:30:26;59.20;;;26.03;;
20454;SDS011;10386;54.314;10.022;2024-03-02T06:32:54;63.70;;;26.07;;
20454;SDS011;10386;54.314;10.022;2024-03-02T06:35:21;67.77;;;26.10;;
20454;SDS011;10386;54.314;10.022;2024-03-02T06:37:48;63.10;;;25.47;;
20454;SDS011;10386;54.314;10.022;2024-03-02T06:40:16;65.57;;;26.07;;
20454;SDS011;10386;54.314;10.022;2024-03-02T06:42:43;64.10;;;25.60;;
20454;SDS011;10386;54.314;10.022;2024-03-02T06:45:10;61.33;;;24.90;;
20454;SDS011;10386;54.314;10.022;2024-03-02T06:47:38;61.23;;;24.40;;
20454;SDS011;10386;54.314;10.022;2024-03-02T06:50:05;62.20;;;25.57;;
20454;SDS011;10386;54.314;10.022;2024-03-02T06:52:33;64.57;;;25.80;;
20454;SDS011;10386;54.314;10.022;2024-03-02T06:55:01;64.70;;;26.10;;
20454;SDS011;10386;54.314;10.022;2024-03-02T06:57:28;63.37;;;25.40;;
20454;SDS011;10386;54.314;10.022;2024-03-02T06:59:55;60.63;;;24.73;;
20454;SDS011;10386;54.314;10.022;2024-03-02T07:02:25;61.73;;;25.33;;
20454;SDS011;10386;54.314;10.022;2024-03-02T07:04:54;62.17;;;23.80;;
20454;SDS011;10386;54.314;10.022;2024-03-02T07:07:21;59.13;;;24.63;;
20454;SDS011;10386;54.314;10.022;2024-03-02T07:09:48;64.43;;;24.43;;
20454;SDS011;10386;54.314;10.022;2024-03-02T07:12:15;58.30;;;24.93;;
20454;SDS011;10386;54.314;10.022;2024-03-02T07:14:42;60.97;;;25.03;;
20454;SDS011;10386;54.314;10.022;2024-03-02T07:17:29;59.40;;;23.70;;
20454;SDS011;10386;54.314;10.022;2024-03-02T07:19:59;55.57;;;23.93;;
20454;SDS011;10386;54.314;10.022;2024-03-02T07:22:26;57.27;;;23.30;;
20454;SDS011;10386;54.314;10.022;2024-03-02T07:24:53;52.77;;;22.80;;
20454;SDS011;10386;54.314;10.022;2024-03-02T07:27:21;60.13;;;23.63;;
20454;SDS011;10386;54.314;10.022;2024-03-02T07:29:48;55.70;;;23.07;;
20454;SDS011;10386;54.314;10.022;2024-03-02T07:32:15;56.97;;;23.83;;
20454;SDS011;10386;54.314;10.022;2024-03-02T07:34:44;56.50;;;23.87;;
20454;SDS011;10386;54.314;10.022;2024-03-02T07:37:12;56.17;;;23.33;;
20454;SDS011;10386;54.314;10.022;2024-03-02T07:39:43;47.37;;;21.13;;
20454;SDS011;10386;54.314;10.022;2024-03-02T07:42:11;53.77;;;22.10;;
20454;SDS011;10386;54.314;10.022;2024-03-02T07:44:38;50.27;;;22.13;;
20454;SDS011;10386;54.314;10.022;2024-03-02T07:47:07;53.80;;;21.70;;
20454;SDS011;10386;54.314;10.022;2024-03-02T07:49:34;50.47;;;21.40;;
20454;SDS011;10386;54.314;10.022;2024-03-02T07:52:01;50.87;;;21.33;;
20454;SDS011;10386;54.314;10.022;2024-03-02T07:54:29;53.00;;;23.10;;
20454;SDS011;10386;54.314;10.022;2024-03-02T07:56:56;50.97;;;21.03;;
20454;SDS011;10386;54.314;10.022;2024-03-02T07:59:23;53.77;;;22.67;;
20454;SDS011;10386;54.314;10.022;2024-03-02T08:01:50;47.80;;;21.73;;
20454;SDS011;10386;54.314;10.022;2024-03-02T08:04:17;51.20;;;20.57;;
20454;SDS011;10386;54.314;10.022;2024-03-02T08:06:45;49.80;;;21.13;;
20454;SDS011;10386;54.314;10.022;2024-03-02T08:09:12;51.67;;;21.63;;
20454;SDS011;10386;54.314;10.022;2024-03-02T08:11:38;52.27;;;21.90;;
20454;SDS011;10386;54.314;10.022;2024-03-02T08:14:05;50.40;;;21.07;;
20454;SDS011;10386;54.314;10.022;2024-03-02T08:16:32;47.70;;;20.70;;
20454;SDS011;10386;54.314;10.022;2024-03-02T08:18:59;48.03;;;21.27;;
20454;SDS011;10386;54.314;10.022;2024-03-02T08:21:27;49.50;;;21.53;;
20454;SDS011;10386;54.314;10.022;2024-03-02T08:23:57;50.43;;;21.07;;
20454;SDS011;10386;54.314;10.022;2024-03-02T08:26:25;45.60;;;20.57;;
20454;SDS011;10386;54.314;10.022;2024-03-02T08:28:52;52.40;;;22.23;;
20454;SDS011;10386;54.314;10.022;2024-03-02T08:31:19;52.93;;;22.93;;
20454;SDS011;10386;54.314;10.022;2024-03-02T08:33:46;48.73;;;21.47;;
20454;SDS011;10386;54.314;10.022;2024-03-02T08:36:12;48.87;;;20.73;;
20454;SDS011;10386;54.314;10.022;2024-03-02T08:38:39;45.53;;;19.13;;
20454;SDS011;10386;54.314;10.022;2024-03-02T08:41:06;45.90;;;20.10;;
20454;SDS011;10386;54.314;10.022;2024-03-02T08:43:33;51.77;;;22.23;;
20454;SDS011;10386;54.314;10.022;2024-03-02T08:46:00;42.40;;;19.37;;
20454;SDS011;10386;54.314;10.022;2024-03-02T08:48:28;45.80;;;20.13;;
20454;SDS011;10386;54.314;10.022;2024-03-02T08:50:55;43.23;;;19.70;;
20454;SDS011;10386;54.314;10.022;2024-03-02T08:53:22;45.17;;;19.37;;
20454;SDS011;10386;54.314;10.022;2024-03-02T08:55:49;48.43;;;20.93;;
20454;SDS011;10386;54.314;10.022;2024-03-02T08:58:16;43.23;;;19.63;;
20454;SDS011;10386;54.314;10.022;2024-03-02T09:00:43;47.20;;;20.77;;
20454;SDS011;10386;54.314;10.022;2024-03-02T09:03:10;43.63;;;19.93;;
20454;SDS011;10386;54.314;10.022;2024-03-02T09:05:37;43.50;;;19.97;;
20454;SDS011;10386;54.314;10.022;2024-03-02T09:08:04;40.03;;;18.47;;
20454;SDS011;10386;54.314;10.022;2024-03-02T09:10:31;37.03;;;17.17;;
20454;SDS011;10386;54.314;10.022;2024-03-02T09:13:11;38.57;;;17.90;;
20454;SDS011;10386;54.314;10.022;2024-03-02T09:15:38;38.10;;;17.77;;
20454;SDS011;10386;54.314;10.022;2024-03-02T09:18:06;37.97;;;17.40;;
20454;SDS011;10386;54.314;10.022;2024-03-02T09:20:33;36.60;;;17.87;;
20454;SDS011;10386;54.314;10.022;2024-03-02T09:23:00;35.63;;;17.40;;
20454;SDS011;10386;54.314;10.022;2024-03-02T09:25:27;34.53;;;15.93;;
20454;SDS011;10386;54.314;10.022;2024-03-02T09:27:54;34.27;;;17.00;;
20454;SDS011;10386;54.314;10.022;2024-03-02T09:30:20;33.37;;;16.67;;
20454;SDS011;10386;54.314;10.022;2024-03-02T09:32:47;31.77;;;15.40;;
20454;SDS011;10386;54.314;10.022;2024-03-02T09:35:16;31.47;;;15.53;;
20454;SDS011;10386;54.314;10.022;2024-03-02T09:37:42;32.30;;;14.93;;
20454;SDS011;10386;54.314;10.022;2024-03-02T09:40:09;34.57;;;15.60;;
20454;SDS011;10386;54.314;10.022;2024-03-02T09:42:37;28.53;;;14.93;;
20454;SDS011;10386;54.314;10.022;2024-03-02T09:45:04;35.20;;;15.47;;
20454;SDS011;10386;54.314;10.022;2024-03-02T09:47:31;33.17;;;16.10;;
20454;SDS011;10386;54.314;10.022;2024-03-02T09:49:59;32.60;;;15.40;;
20454;SDS011;10386;54.314;10.022;2024-03-02T09:52:25;32.93;;;15.33;;
20454;SDS011;10386;54.314;10.022;2024-03-02T09:54:52;34.03;;;15.63;;
20454;SDS011;10386;54.314;10.022;2024-03-02T09:57:19;33.47;;;16.40;;
20454;SDS011;10386;54.314;10.022;2024-03-02T09:59:46;32.63;;;15.30;;
20454;SDS011;10386;54.314;10.022;2024-03-02T10:02:13;35.20;;;17.33;;
20454;SDS011;10386;54.314;10.022;2024-03-02T10:04:40;34.17;;;17.70;;
20454;SDS011;10386;54.314;10.022;2024-03-02T10:07:11;35.10;;;17.07;;
20454;SDS011;10386;54.314;10.022;2024-03-02T10:09:42;32.43;;;16.20;;
20454;SDS011;10386;54.314;10.022;2024-03-02T10:12:11;33.57;;;15.30;;
20454;SDS011;10386;54.314;10.022;2024-03-02T10:14:39;40.80;;;18.83;;
20454;SDS011;10386;54.314;10.022;2024-03-02T10:17:10;34.10;;;15.70;;
20454;SDS011;10386;54.314;10.022;2024-03-02T10:19:39;38.60;;;22.43;;
20454;SDS011;10386;54.314;10.022;2024-03-02T10:22:07;38.07;;;20.17;;
20454;SDS011;10386;54.314;10.022;2024-03-02T10:24:41;30.53;;;14.80;;
20454;SDS011;10386;54.314;10.022;2024-03-02T10:27:32;35.30;;;18.30;;
20454;SDS011;10386;54.314;10.022;2024-03-02T10:30:03;30.93;;;15.73;;
20454;SDS011;10386;54.314;10.022;2024-03-02T10:32:32;38.80;;;19.93;;
20454;SDS011;10386;54.314;10.022;2024-03-02T10:34:59;29.73;;;15.80;;
20454;SDS011;10386;54.314;10.022;2024-03-02T10:37:27;39.30;;;17.10;;
20454;SDS011;10386;54.314;10.022;2024-03-02T10:39:54;24.83;;;13.23;;
20454;SDS011;10386;54.314;10.022;2024-03-02T10:42:21;29.63;;;15.50;;
20454;SDS011;10386;54.314;10.022;2024-03-02T10:44:49;27.17;;;14.50;;
20454;SDS011;10386;54.314;10.022;2024-03-02T10:47:17;30.37;;;15.33;;
20454;SDS011;10386;54.314;10.022;2024-03-02T10:49:46;30.03;;;14.53;;
20454;SDS011;10386;54.314;10.022;2024-03-02T10:52:17;28.27;;;14.07;;
20454;SDS011;10386;54.314;10.022;2024-03-02T10:54:44;34.63;;;18.90;;
20454;SDS011;10386;54.314;10.022;2024-03-02T10:57:11;34.23;;;17.17;;
20454;SDS011;10386;54.314;10.022;2024-03-02T10:59:52;27.83;;;13.40;;
20454;SDS011;10386;54.314;10.022;2024-03-02T11:02:23;26.57;;;13.40;;
20454;SDS011;10386;54.314;10.022;2024-03-02T11:04:52;26.30;;;13.63;;
20454;SDS011;10386;54.314;10.022;2024-03-02T11:07:22;25.63;;;13.13;;
20454;SDS011;10386;54.314;10.022;2024-03-02T11:09:59;24.50;;;12.93;;
20454;SDS011;10386;54.314;10.022;2024-03-02T11:12:36;34.90;;;17.97;;
20454;SDS011;10386;54.314;10.022;2024-03-02T11:15:09;74.13;;;35.40;;
20454;SDS011;10386;54.314;10.022;2024-03-02T11:17:39;32.73;;;16.23;;
20454;SDS011;10386;54.314;10.022;2024-03-02T11:20:07;36.27;;;18.20;;
20454;SDS011;10386;54.314;10.022;2024-03-02T11:22:36;27.43;;;13.70;;
20454;SDS011;10386;54.314;10.022;2024-03-02T11:25:03;27.13;;;12.97;;
20454;SDS011;10386;54.314;10.022;2024-03-02T11:33:01;32.87;;;15.90;;
20454;SDS011;10386;54.314;10.022;2024-03-02T11:35:43;31.43;;;16.27;;
20454;SDS011;10386;54.314;10.022;2024-03-02T11:38:15;35.77;;;16.87;;
20454;SDS011;10386;54.314;10.022;2024-03-02T11:40:42;29.83;;;14.17;;
20454;SDS011;10386;54.314;10.022;2024-03-02T11:43:09;36.60;;;17.10;;
20454;SDS011;10386;54.314;10.022;2024-03-02T11:45:37;31.33;;;14.63;;
20454;SDS011;10386;54.314;10.022;2024-03-02T11:48:14;28.70;;;13.97;;
20454;SDS011;10386;54.314;10.022;2024-03-02T11:50:42;41.53;;;19.00;;
20454;SDS011;10386;54.314;10.022;2024-03-02T11:53:13;32.07;;;16.20;;
20454;SDS011;10386;54.314;10.022;2024-03-02T11:55:40;35.40;;;18.00;;
20454;SDS011;10386;54.314;10.022;2024-03-02T11:58:08;29.47;;;14.47;;
20454;SDS011;10386;54.314;10.022;2024-03-02T12:00:36;27.77;;;13.77;;
20454;SDS011;10386;54.314;10.022;2024-03-02T12:03:07;34.87;;;14.67;;
20454;SDS011;10386;54.314;10.022;2024-03-02T12:05:36;28.67;;;14.37;;
20454;SDS011;10386;54.314;10.022;2024-03-02T12:08:04;28.67;;;12.90;;
20454;SDS011;10386;54.314;10.022;2024-03-02T12:10:33;26.87;;;13.60;;
20454;SDS011;10386;54.314;10.022;2024-03-02T12:13:02;27.20;;;14.00;;
20454;SDS011;10386;54.314;10.022;2024-03-02T12:15:38;26.47;;;13.50;;
20454;SDS011;10386;54.314;10.022;2024-03-02T12:18:06;34.30;;;16.60;;
20454;SDS011;10386;54.314;10.022;2024-03-02T12:20:33;34.80;;;17.57;;
20454;SDS011;10386;54.314;10.022;2024-03-02T12:23:02;27.73;;;14.30;;
20454;SDS011;10386;54.314;10.022;2024-03-02T12:25:31;24.07;;;13.03;;
20454;SDS011;10386;54.314;10.022;2024-03-02T12:28:00;23.93;;;13.00;;
20454;SDS011;10386;54.314;10.022;2024-03-02T12:30:29;26.43;;;13.30;;
20454;SDS011;10386;54.314;10.022;2024-03-02T12:32:57;22.70;;;12.50;;
20454;SDS011;10386;54.314;10.022;2024-03-02T12:35:24;25.00;;;12.70;;
20454;SDS011;10386;54.314;10.022;2024-03-02T12:37:52;26.30;;;13.80;;
20454;SDS011;10386;54.314;10.022;2024-03-02T12:40:20;25.07;;;13.47;;
20454;SDS011;10386;54.314;10.022;2024-03-02T12:42:49;26.63;;;12.43;;
20454;SDS011;10386;54.314;10.022;2024-03-02T12:45:17;24.03;;;12.43;;
20454;SDS011;10386;54.314;10.022;2024-03-02T12:47:51;29.07;;;14.20;;
20454;SDS011;10386;54.314;10.022;2024-03-02T12:50:20;28.60;;;13.87;;
20454;SDS011;10386;54.314;10.022;2024-03-02T12:52:51;24.10;;;12.33;;
20454;SDS011;10386;54.314;10.022;2024-03-02T12:55:20;25.20;;;12.83;;
20454;SDS011;10386;54.314;10.022;2024-03-02T12:57:49;28.20;;;14.87;;
20454;SDS011;10386;54.314;10.022;2024-03-02T13:00:18;25.23;;;12.40;;
20454;SDS011;10386;54.314;10.022;2024-03-02T13:02:46;24.57;;;13.07;;
20454;SDS011;10386;54.314;10.022;2024-03-02T13:05:14;32.63;;;15.37;;
20454;SDS011;10386;54.314;10.022;2024-03-02T13:07:42;25.07;;;12.07;;
20454;SDS011;10386;54.314;10.022;2024-03-02T13:10:09;22.57;;;11.83;;
20454;SDS011;10386;54.314;10.022;2024-03-02T13:12:36;23.03;;;11.67;;
20454;SDS011;10386;54.314;10.022;2024-03-02T13:15:04;30.40;;;14.37;;
20454;SDS011;10386;54.314;10.022;2024-03-02T13:17:34;26.23;;;12.73;;
20454;SDS011;10386;54.314;10.022;2024-03-02T13:20:04;26.67;;;12.97;;
20454;SDS011;10386;54.314;10.022;2024-03-02T13:22:35;21.37;;;11.97;;
20454;SDS011;10386;54.314;10.022;2024-03-02T13:25:02;24.90;;;12.60;;
20454;SDS011;10386;54.314;10.022;2024-03-02T13:27:34;24.80;;;12.10;;
20454;SDS011;10386;54.314;10.022;2024-03-02T13:30:02;24.13;;;12.27;;
20454;SDS011;10386;54.314;10.022;2024-03-02T13:32:32;26.40;;;13.30;;
20454;SDS011;10386;54.314;10.022;2024-03-02T13:34:59;26.90;;;12.73;;
20454;SDS011;10386;54.314;10.022;2024-03-02T13:37:26;25.37;;;12.70;;
20454;SDS011;10386;54.314;10.022;2024-03-02T13:39:53;26.73;;;13.37;;
20454;SDS011;10386;54.314;10.022;2024-03-02T13:42:20;23.57;;;12.77;;
20454;SDS011;10386;54.314;10.022;2024-03-02T13:44:47;25.83;;;12.73;;
20454;SDS011;10386;54.314;10.022;2024-03-02T13:47:16;28.47;;;12.90;;
20454;SDS011;10386;54.314;10.022;2024-03-02T13:49:43;34.37;;;15.83;;
20454;SDS011;10386;54.314;10.022;2024-03-02T13:52:12;35.00;;;15.67;;
20454;SDS011;10386;54.314;10.022;2024-03-02T13:54:40;26.97;;;13.77;;
20454;SDS011;10386;54.314;10.022;2024-03-02T13:57:09;30.03;;;14.93;;
20454;SDS011;10386;54.314;10.022;2024-03-02T13:59:37;24.57;;;12.67;;
20454;SDS011;10386;54.314;10.022;2024-03-02T14:02:05;31.90;;;14.43;;
20454;SDS011;10386;54.314;10.022;2024-03-02T14:04:36;53.47;;;22.40;;
20454;SDS011;10386;54.314;10.022;2024-03-02T14:07:04;27.87;;;14.00;;
20454;SDS011;10386;54.314;10.022;2024-03-02T14:09:35;29.97;;;14.37;;
20454;SDS011;10386;54.314;10.022;2024-03-02T14:12:03;28.10;;;14.17;;
20454;SDS011;10386;54.314;10.022;2024-03-02T14:14:32;25.90;;;12.77;;
20454;SDS011;10386;54.314;10.022;2024-03-02T14:16:59;24.77;;;12.83;;
20454;SDS011;10386;54.314;10.022;2024-03-02T14:19:30;28.17;;;13.97;;
20454;SDS011;10386;54.314;10.022;2024-03-02T14:21:57;33.43;;;14.43;;
20454;SDS011;10386;54.314;10.022;2024-03-02T14:24:24;29.97;;;14.27;;
20454;SDS011;10386;54.314;10.022;2024-03-02T14:26:52;28.43;;;14.00;;
20454;SDS011;10386;54.314;10.022;2024-03-02T14:29:31;27.20;;;14.10;;